Time;durP1;ratioP1;P1;durP2;ratioP2;P2;SDS_P1;SDS_P2;PMS_P1;PMS_P2;Temp;Humidity;BMP_temperature;BMP_pressure;BME280_temperature;BME280_humidity;BME280_pressure;Samples;Min_cycle;Max_cycle;Signal;HPM_P1;HPM_P2
2022/04/28 00:00:00;;;;;;;14.13;3.30;;;8.20;99.90;;;;;;5044773;28;20595;-35
2022/04/28 00:02:28;;;;;;;8.80;3.03;;;8.20;99.90;;;;;;5045313;28;20496;-35
2022/04/28 00:04:54;;;;;;;9.77;3.30;;;8.20;99.90;;;;;;5046033;28;20051;-35
2022/04/28 00:07:20;;;;;;;11.83;3.23;;;8.20;99.90;;;;;;5033255;28;20488;-35
2022/04/28 00:09:45;;;;;;;9.87;2.50;;;8.20;99.90;;;;;;5045362;28;20103;-35
2022/04/28 00:12:12;;;;;;;7.27;2.70;;;8.10;99.90;;;;;;5045130;28;20049;-35
2022/04/28 00:14:38;;;;;;;9.37;2.80;;;8.20;99.90;;;;;;5046835;28;20403;-35
2022/04/28 00:17:04;;;;;;;11.17;2.70;;;8.20;99.90;;;;;;5030471;28;20124;-35
2022/04/28 00:19:30;;;;;;;13.30;2.87;;;8.10;99.90;;;;;;5046563;28;20080;-35
2022/04/28 00:21:56;;;;;;;8.43;3.00;;;8.20;99.90;;;;;;5046069;28;20076;-34
2022/04/28 00:24:21;;;;;;;14.70;3.40;;;8.30;99.90;;;;;;5045791;28;20041;-35
2022/04/28 00:26:47;;;;;;;9.53;3.03;;;8.10;99.90;;;;;;5029203;28;20518;-36
2022/04/28 00:29:13;;;;;;;10.00;3.80;;;8.10;99.90;;;;;;5044116;28;20045;-35
2022/04/28 00:31:38;;;;;;;11.50;3.30;;;8.20;99.90;;;;;;5045672;28;20040;-35
2022/04/28 00:34:04;;;;;;;10.07;3.63;;;8.20;99.90;;;;;;5045275;28;20122;-35
2022/04/28 00:36:30;;;;;;;13.27;3.93;;;8.10;99.90;;;;;;5033291;28;20068;-35
2022/04/28 00:38:56;;;;;;;12.17;3.33;;;8.20;99.90;;;;;;5043319;28;20106;-34
2022/04/28 00:41:21;;;;;;;7.77;3.23;;;8.10;99.90;;;;;;5046553;28;20060;-35
2022/04/28 00:43:53;;;;;;;14.73;3.70;;;8.20;99.90;;;;;;5045529;28;20252;-35
2022/04/28 00:46:20;;;;;;;14.50;3.47;;;8.10;99.90;;;;;;5035260;28;20055;-35
2022/04/28 00:51:31;;;;;;;14.27;3.77;;;8.10;99.90;;;;;;5045164;28;20064;-35
2022/04/28 00:53:59;;;;;;;9.97;3.17;;;8.10;99.90;;;;;;5044973;28;21125;-35
2022/04/28 00:56:28;;;;;;;12.40;3.60;;;8.10;99.90;;;;;;5034857;28;20057;-35
2022/04/28 00:58:56;;;;;;;9.27;3.47;;;8.10;99.90;;;;;;5042120;28;20048;-35
2022/04/28 01:01:22;;;;;;;11.07;3.23;;;8.10;99.90;;;;;;5046673;28;20063;-35
2022/04/28 01:03:48;;;;;;;12.17;4.03;;;8.10;99.90;;;;;;5045900;28;20060;-35
2022/04/28 01:06:14;;;;;;;8.40;3.50;;;8.10;99.90;;;;;;5018247;28;20044;-35
2022/04/28 01:08:40;;;;;;;9.07;3.33;;;8.10;99.90;;;;;;5038185;28;20554;-35
2022/04/28 01:11:07;;;;;;;13.53;4.07;;;8.10;99.90;;;;;;5045168;28;20250;-35
2022/04/28 01:13:33;;;;;;;9.47;3.50;;;8.10;99.90;;;;;;5044011;28;20568;-35
2022/04/28 01:15:59;;;;;;;15.23;3.43;;;8.10;99.90;;;;;;5060872;28;20121;-35
2022/04/28 01:18:25;;;;;;;13.17;3.40;;;8.10;99.90;;;;;;5030920;28;20562;-35
2022/04/28 01:20:51;;;;;;;12.40;3.67;;;8.00;99.90;;;;;;5045205;28;20036;-35
2022/04/28 01:23:18;;;;;;;12.97;3.57;;;8.00;99.90;;;;;;5043121;28;20052;-35
2022/04/28 01:25:44;;;;;;;7.73;3.30;;;8.00;99.90;;;;;;5046599;28;20041;-35
2022/04/28 01:28:10;;;;;;;9.77;3.47;;;8.00;99.90;;;;;;5026924;28;20554;-35
2022/04/28 01:30:37;;;;;;;12.67;3.57;;;8.10;99.90;;;;;;5046687;28;20148;-35
2022/04/28 01:33:05;;;;;;;13.53;3.70;;;8.00;99.90;;;;;;5042553;28;20055;-35
2022/04/28 01:35:31;;;;;;;12.17;3.33;;;8.00;99.90;;;;;;5045923;28;20072;-35
2022/04/28 01:37:57;;;;;;;11.03;3.80;;;8.10;99.90;;;;;;5029363;28;20045;-35
2022/04/28 01:40:23;;;;;;;8.70;3.50;;;8.00;99.90;;;;;;5045692;28;20056;-35
2022/04/28 01:42:49;;;;;;;11.87;3.63;;;8.00;99.90;;;;;;5043262;28;20041;-35
2022/04/28 01:45:15;;;;;;;9.57;3.43;;;8.00;99.90;;;;;;5064121;28;20067;-35
2022/04/28 01:47:41;;;;;;;10.53;3.33;;;8.20;99.90;;;;;;5028927;28;20492;-35
2022/04/28 01:50:10;;;;;;;7.90;3.30;;;8.00;99.90;;;;;;5044613;28;20270;-35
2022/04/28 01:55:21;;;;;;;9.93;3.43;;;8.00;99.90;;;;;;5045147;28;20047;-35
2022/04/28 01:57:47;;;;;;;9.70;3.70;;;8.00;99.90;;;;;;5026788;28;20052;-35
2022/04/28 02:00:14;;;;;;;9.27;3.33;;;8.10;99.90;;;;;;5044972;28;20066;-35
2022/04/28 02:02:40;;;;;;;13.13;3.73;;;8.00;99.90;;;;;;5043255;28;20048;-35
2022/04/28 02:05:07;;;;;;;11.33;3.63;;;8.00;99.90;;;;;;5044556;28;20127;-35
2022/04/28 02:07:33;;;;;;;10.73;3.70;;;8.00;99.90;;;;;;5030283;28;20535;-35
2022/04/28 02:09:59;;;;;;;13.77;3.60;;;8.00;99.90;;;;;;5044740;28;20753;-35
2022/04/28 02:12:26;;;;;;;11.93;3.60;;;8.00;99.90;;;;;;5042764;28;20048;-35
2022/04/28 02:14:53;;;;;;;11.70;3.97;;;8.10;99.90;;;;;;5044946;28;20044;-35
2022/04/28 02:17:24;;;;;;;7.70;3.30;;;8.00;99.90;;;;;;5028435;28;20072;-35
2022/04/28 02:19:50;;;;;;;12.23;3.50;;;8.00;99.90;;;;;;5043846;28;20048;-35
2022/04/28 02:22:16;;;;;;;12.47;3.73;;;8.00;99.90;;;;;;5042324;28;20041;-35
2022/04/28 02:24:42;;;;;;;12.53;3.63;;;8.00;99.90;;;;;;5043395;28;20045;-35
2022/04/28 02:27:08;;;;;;;11.23;3.17;;;8.00;99.90;;;;;;5027546;28;20561;-36
2022/04/28 02:29:35;;;;;;;7.33;2.93;;;8.00;99.90;;;;;;5044402;28;20063;-35
2022/04/28 02:32:01;;;;;;;7.83;3.20;;;8.00;99.90;;;;;;5043911;28;20052;-35
2022/04/28 02:34:27;;;;;;;10.57;3.47;;;8.00;99.90;;;;;;5043461;28;20033;-35
2022/04/28 02:36:53;;;;;;;10.53;3.47;;;8.10;99.90;;;;;;5028677;28;20404;-35
2022/04/28 02:39:19;;;;;;;10.10;3.70;;;8.00;99.90;;;;;;5043672;28;20122;-35
2022/04/28 02:41:46;;;;;;;11.80;3.40;;;8.00;99.90;;;;;;5044259;28;20527;-35
2022/04/28 02:44:13;;;;;;;10.33;3.70;;;7.90;99.90;;;;;;5041489;28;20126;-35
2022/04/28 02:46:48;;;;;;;13.40;3.30;;;8.00;99.90;;;;;;5030422;28;20060;-35
2022/04/28 02:49:15;;;;;;;11.90;3.53;;;8.00;99.90;;;;;;5042447;28;20052;-35
2022/04/28 02:51:41;;;;;;;10.87;3.57;;;8.00;99.90;;;;;;5044524;28;20376;-35
2022/04/28 02:54:07;;;;;;;10.23;3.53;;;8.00;99.90;;;;;;5043538;28;20504;-35
2022/04/28 02:56:34;;;;;;;12.33;3.60;;;7.90;99.90;;;;;;5031506;28;20037;-36
2022/04/28 02:58:59;;;;;;;9.80;3.17;;;8.00;99.90;;;;;;5041075;28;20233;-35
2022/04/28 03:01:26;;;;;;;8.43;3.60;;;7.90;99.90;;;;;;5043536;28;20041;-35
2022/04/28 03:03:52;;;;;;;12.13;3.53;;;8.00;99.90;;;;;;5042289;28;20045;-35
2022/04/28 03:11:48;;;;;;;12.03;3.87;;;8.00;99.90;;;;;;5043725;28;20064;-35
2022/04/28 03:14:15;;;;;;;10.47;4.40;;;7.90;99.90;;;;;;5042471;28;20052;-35
2022/04/28 03:16:41;;;;;;;12.50;4.10;;;7.90;99.90;;;;;;5031369;28;20040;-35
2022/04/28 03:19:07;;;;;;;12.33;3.97;;;7.90;99.90;;;;;;5039900;28;20048;-35
2022/04/28 03:21:33;;;;;;;9.77;3.77;;;8.10;99.90;;;;;;5043421;28;20052;-35
2022/04/28 03:23:59;;;;;;;12.77;3.63;;;7.90;99.90;;;;;;5042768;28;20546;-35
2022/04/28 03:26:25;;;;;;;13.77;4.47;;;7.90;99.90;;;;;;5031585;28;20049;-35
2022/04/28 03:28:51;;;;;;;8.70;4.13;;;7.90;99.90;;;;;;5037010;28;20057;-35
2022/04/28 03:31:16;;;;;;;8.50;3.60;;;8.10;99.90;;;;;;5044004;28;20071;-35
2022/04/28 03:33:42;;;;;;;8.83;3.57;;;8.10;99.90;;;;;;5040862;28;20052;-35
2022/04/28 03:38:52;;;;;;;9.50;3.63;;;7.90;99.90;;;;;;5038662;28;20087;-35
2022/04/28 03:41:18;;;;;;;10.63;3.90;;;7.80;99.90;;;;;;5042904;28;20415;-35
2022/04/28 03:43:44;;;;;;;15.73;3.97;;;7.90;99.90;;;;;;5042738;28;20264;-35
2022/04/28 03:46:18;;;;;;;9.53;3.83;;;7.90;99.90;;;;;;5039717;28;20383;-35
2022/04/28 03:48:44;;;;;;;9.00;3.53;;;7.80;99.90;;;;;;5033553;28;20152;-35
2022/04/28 03:51:11;;;;;;;11.90;3.77;;;7.90;99.90;;;;;;5042828;28;20504;-35
2022/04/28 03:53:37;;;;;;;6.43;3.27;;;7.90;99.90;;;;;;5039347;28;20527;-35
2022/04/28 03:56:03;;;;;;;13.03;3.53;;;7.90;99.90;;;;;;5042853;28;20051;-35
2022/04/28 03:58:29;;;;;;;8.80;3.20;;;7.90;99.90;;;;;;5025691;28;20044;-35
2022/04/28 04:00:54;;;;;;;6.67;3.37;;;7.90;99.90;;;;;;5043272;28;20045;-35
2022/04/28 04:03:20;;;;;;;10.27;3.80;;;7.80;99.90;;;;;;5042539;28;20041;-35
2022/04/28 04:05:47;;;;;;;12.30;4.20;;;7.90;99.90;;;;;;5042944;28;20458;-35
2022/04/28 04:08:13;;;;;;;10.10;3.90;;;7.90;99.90;;;;;;5026595;28;20057;-35
2022/04/28 04:10:39;;;;;;;9.60;3.63;;;7.90;99.90;;;;;;5042286;28;20049;-35
2022/04/28 04:13:05;;;;;;;9.27;4.57;;;7.80;99.90;;;;;;5041301;28;20052;-35
2022/04/28 04:15:32;;;;;;;12.77;4.70;;;7.80;99.90;;;;;;5042316;28;20055;-35
2022/04/28 04:17:58;;;;;;;10.20;4.30;;;7.90;99.90;;;;;;5026712;28;20490;-35
2022/04/28 04:20:23;;;;;;;13.90;4.40;;;7.90;99.90;;;;;;5042585;28;20044;-35
2022/04/28 04:22:49;;;;;;;11.00;4.33;;;7.90;99.90;;;;;;5041208;28;20519;-35
2022/04/28 04:25:15;;;;;;;10.20;4.63;;;7.90;99.90;;;;;;5042084;28;20040;-35
2022/04/28 04:27:40;;;;;;;13.50;5.03;;;7.80;99.90;;;;;;5026887;28;20045;-35
2022/04/28 04:32:51;;;;;;;13.60;5.17;;;8.00;99.90;;;;;;5041196;28;20087;-34
2022/04/28 04:35:17;;;;;;;10.93;5.23;;;8.10;99.90;;;;;;5042320;28;20056;-35
2022/04/28 04:37:43;;;;;;;12.27;5.17;;;8.00;99.90;;;;;;5027441;28;20053;-35
2022/04/28 04:40:11;;;;;;;15.40;6.17;;;8.10;99.90;;;;;;5044089;28;20056;-35
2022/04/28 04:42:37;;;;;;;14.80;4.70;;;8.10;99.90;;;;;;5039939;28;20418;-35
2022/04/28 04:45:04;;;;;;;11.23;4.57;;;8.10;99.90;;;;;;5041929;28;20087;-35
2022/04/28 04:47:30;;;;;;;13.17;4.07;;;8.10;99.90;;;;;;5029474;28;20045;-35
2022/04/28 04:49:55;;;;;;;13.23;4.43;;;8.20;99.90;;;;;;5045675;28;20095;-35
2022/04/28 04:52:21;;;;;;;10.97;4.03;;;8.20;99.90;;;;;;5045804;28;20480;-35
2022/04/28 04:54:47;;;;;;;13.10;3.70;;;8.30;99.90;;;;;;5047053;28;20622;-35
2022/04/28 04:57:12;;;;;;;17.10;3.70;;;8.30;99.90;;;;;;5028405;28;20523;-35
2022/04/28 04:59:38;;;;;;;12.17;3.47;;;8.30;99.90;;;;;;5045765;28;20047;-35
2022/04/28 05:02:03;;;;;;;9.50;3.23;;;8.40;99.90;;;;;;5045651;28;20437;-36
2022/04/28 05:04:29;;;;;;;16.17;3.50;;;8.40;99.90;;;;;;5044898;28;20044;-35
2022/04/28 05:06:55;;;;;;;11.53;3.47;;;8.40;99.90;;;;;;5032569;28;20045;-35
2022/04/28 05:09:21;;;;;;;9.33;3.57;;;8.50;99.90;;;;;;5044654;28;20079;-35
2022/04/28 05:11:46;;;;;;;15.20;3.00;;;8.50;99.90;;;;;;5043910;28;20048;-35
2022/04/28 05:14:12;;;;;;;14.80;3.50;;;8.60;99.90;;;;;;5046096;28;20033;-35
2022/04/28 05:16:38;;;;;;;10.90;3.20;;;8.60;99.90;;;;;;5030408;28;20467;-35
2022/04/28 05:19:03;;;;;;;11.37;2.97;;;8.60;99.90;;;;;;5043804;28;20065;-35
2022/04/28 05:21:29;;;;;;;12.67;3.17;;;8.70;99.90;;;;;;5044599;28;20045;-35
2022/04/28 05:23:55;;;;;;;13.97;3.03;;;8.70;99.90;;;;;;5045336;28;20041;-35
2022/04/28 05:26:20;;;;;;;14.63;3.47;;;8.70;99.90;;;;;;5034283;28;20045;-35
2022/04/28 05:28:47;;;;;;;9.57;3.10;;;8.80;99.90;;;;;;5039787;28;20053;-35
2022/04/28 05:31:12;;;;;;;13.57;2.97;;;8.90;99.90;;;;;;5047254;28;20135;-35
2022/04/28 05:33:41;;;;;;;12.70;3.20;;;8.90;99.90;;;;;;5044716;28;20231;-35
2022/04/28 05:36:12;;;;;;;11.03;3.00;;;9.00;99.90;;;;;;5039052;28;20049;-36
2022/04/28 05:38:39;;;;;;;16.20;3.55;;;9.10;99.90;;;;;;5021837;28;20118;-35
2022/04/28 05:41:05;;;;;;;13.67;2.90;;;9.20;99.90;;;;;;5025973;28;20565;-35
2022/04/28 05:46:18;;;;;;;12.87;2.80;;;9.30;99.90;;;;;;5031877;28;20179;-36
2022/04/28 05:48:44;;;;;;;14.47;3.20;;;9.30;99.90;;;;;;5038922;28;20195;-35
2022/04/28 05:51:11;;;;;;;10.17;2.50;;;9.40;99.90;;;;;;5044785;28;20059;-35
2022/04/28 05:53:41;;;;;;;8.40;2.90;;;9.50;99.90;;;;;;5043880;28;20523;-36
2022/04/28 05:56:07;;;;;;;8.57;2.90;;;9.50;99.90;;;;;;5041782;28;20071;-36
2022/04/28 05:58:33;;;;;;;11.80;3.20;;;9.70;99.90;;;;;;5033227;28;20049;-35
2022/04/28 06:00:59;;;;;;;11.43;3.10;;;9.70;99.90;;;;;;5044300;28;20048;-35
2022/04/28 06:03:25;;;;;;;14.17;3.50;;;9.80;99.90;;;;;;5044177;28;20049;-35
2022/04/28 06:05:50;;;;;;;12.27;3.57;;;9.90;99.90;;;;;;5043904;28;20059;-35
2022/04/28 06:08:16;;;;;;;7.13;3.07;;;9.90;99.90;;;;;;5027060;28;20107;-35
2022/04/28 06:10:42;;;;;;;9.00;3.00;;;10.00;99.90;;;;;;5044398;28;20140;-35
2022/04/28 06:13:08;;;;;;;12.57;2.77;;;10.10;99.90;;;;;;5040567;28;20083;-35
2022/04/28 06:15:34;;;;;;;11.05;3.40;;;10.20;99.90;;;;;;5041193;28;20392;-35
2022/04/28 06:17:59;;;;;;;13.93;3.60;;;10.20;99.90;;;;;;5026331;28;20449;-36
2022/04/28 06:20:25;;;;;;;12.07;3.40;;;10.30;99.90;;;;;;5042420;28;20041;-36
2022/04/28 06:22:51;;;;;;;12.02;2.70;;;10.40;99.90;;;;;;5041168;28;20076;-36
2022/04/28 06:25:17;;;;;;;8.20;2.80;;;10.40;99.90;;;;;;5043586;28;20087;-36
2022/04/28 06:27:43;;;;;;;12.50;2.88;;;10.50;99.90;;;;;;5026778;28;20131;-36
2022/04/28 06:30:09;;;;;;;10.77;3.00;;;10.50;99.90;;;;;;5042309;28;20053;-36
2022/04/28 06:32:35;;;;;;;9.05;2.30;;;10.60;99.90;;;;;;5041695;28;20041;-36
2022/04/28 06:35:02;;;;;;;13.18;2.60;;;10.60;99.90;;;;;;5041747;28;20044;-36
2022/04/28 06:37:28;;;;;;;8.73;2.10;;;10.60;99.90;;;;;;5027002;28;20075;-36
2022/04/28 06:39:54;;;;;;;8.32;2.00;;;10.80;99.90;;;;;;5042304;28;20036;-36
2022/04/28 06:42:20;;;;;;;7.53;2.00;;;10.70;99.90;;;;;;5037565;28;20044;-36
2022/04/28 06:44:45;;;;;;;7.97;2.03;;;10.80;99.90;;;;;;5043460;28;20041;-36
2022/04/28 06:47:11;;;;;;;9.48;2.15;;;10.90;99.90;;;;;;5026478;28;20573;-37
2022/04/28 06:49:37;;;;;;;12.93;2.35;;;10.90;99.90;;;;;;5040633;28;20044;-36
2022/04/28 06:52:03;;;;;;;7.63;2.08;;;11.00;99.90;;;;;;5041190;28;20507;-36
2022/04/28 06:54:29;;;;;;;8.18;1.95;;;11.00;99.90;;;;;;5037104;28;20287;-36
2022/04/28 06:56:54;;;;;;;7.20;2.00;;;11.00;99.90;;;;;;5006143;28;20041;-36
2022/04/28 06:59:20;;;;;;;9.02;2.35;;;11.10;99.90;;;;;;5009542;28;20049;-36
2022/04/28 07:01:46;;;;;;;7.70;1.70;;;11.00;99.90;;;;;;5012350;28;20053;-36
2022/04/28 07:04:12;;;;;;;6.57;1.83;;;11.00;99.90;;;;;;5010278;28;20075;-36
2022/04/28 07:06:38;;;;;;;5.63;1.92;;;11.00;99.90;;;;;;5021940;28;20664;-36
2022/04/28 07:09:04;;;;;;;6.82;1.60;;;11.00;99.90;;;;;;5039776;28;20044;-36
2022/04/28 07:11:29;;;;;;;8.60;2.08;;;11.00;99.90;;;;;;5042408;28;20051;-36
2022/04/28 07:13:55;;;;;;;10.38;2.33;;;10.90;99.90;;;;;;5056578;28;20069;-36
2022/04/28 07:16:21;;;;;;;9.05;2.38;;;10.90;99.90;;;;;;5029934;28;20045;-36
2022/04/28 07:18:46;;;;;;;10.10;2.15;;;10.90;99.90;;;;;;5036533;28;20160;-36
2022/04/28 07:21:12;;;;;;;7.55;1.90;;;10.90;99.90;;;;;;5041905;28;20457;-36
2022/04/28 07:23:38;;;;;;;7.10;2.00;;;10.90;99.90;;;;;;5039804;28;20052;-36
2022/04/28 07:26:04;;;;;;;11.63;2.15;;;11.00;99.90;;;;;;5038836;28;20049;-36
2022/04/28 07:28:29;;;;;;;9.55;2.05;;;10.80;99.90;;;;;;5040672;28;20102;-36
2022/04/28 07:30:56;;;;;;;11.45;2.25;;;10.80;99.90;;;;;;5043786;28;20060;-36
2022/04/28 07:33:21;;;;;;;10.85;1.67;;;10.90;99.90;;;;;;5052706;28;20416;-36
2022/04/28 07:35:47;;;;;;;6.43;1.90;;;10.90;99.90;;;;;;5039787;28;20045;-36
2022/04/28 07:38:13;;;;;;;7.78;1.67;;;10.80;99.90;;;;;;5024050;28;20044;-36
2022/04/28 07:40:39;;;;;;;10.27;2.30;;;10.80;99.90;;;;;;5041029;28;20045;-36
2022/04/28 07:43:05;;;;;;;8.15;1.90;;;10.80;99.90;;;;;;5032745;28;20052;-36
2022/04/28 07:45:31;;;;;;;11.60;2.00;;;10.80;99.90;;;;;;5039063;28;20599;-36
2022/04/28 07:47:57;;;;;;;11.30;1.88;;;10.90;99.90;;;;;;5024003;28;20041;-36
2022/04/28 07:50:23;;;;;;;10.32;2.03;;;10.90;99.90;;;;;;5041270;28;20310;-36
2022/04/28 07:52:49;;;;;;;11.40;2.08;;;10.90;99.90;;;;;;5037940;28;20052;-36
2022/04/28 07:55:15;;;;;;;5.32;1.52;;;10.90;99.90;;;;;;5038827;28;20393;-36
2022/04/28 07:57:41;;;;;;;8.27;2.05;;;11.00;99.90;;;;;;5023392;28;20276;-36
2022/04/28 08:00:08;;;;;;;9.93;1.80;;;11.00;99.90;;;;;;5040927;28;20076;-36
2022/04/28 08:02:36;;;;;;;4.45;1.73;;;11.00;99.90;;;;;;5039185;28;20052;-36
2022/04/28 08:05:04;;;;;;;10.57;2.08;;;11.00;99.90;;;;;;5040997;28;20049;-36
2022/04/28 08:07:31;;;;;;;10.95;1.92;;;11.10;99.90;;;;;;5023991;28;20045;-37
2022/04/28 08:09:57;;;;;;;7.43;1.70;;;11.10;99.90;;;;;;5041032;28;20106;-36
2022/04/28 08:12:23;;;;;;;10.07;1.90;;;11.10;99.90;;;;;;5037945;28;20426;-36
2022/04/28 08:14:48;;;;;;;14.85;2.55;;;11.20;99.90;;;;;;5040469;28;20048;-36
2022/04/28 08:17:14;;;;;;;10.95;2.08;;;11.20;99.90;;;;;;5024170;28;20045;-36
2022/04/28 08:19:40;;;;;;;13.23;2.08;;;11.20;99.90;;;;;;5040873;28;20083;-36
2022/04/28 08:22:06;;;;;;;11.32;2.28;;;11.20;99.90;;;;;;5041718;28;20041;-36
2022/04/28 08:24:32;;;;;;;7.97;2.03;;;11.30;99.90;;;;;;5045061;28;20128;-36
2022/04/28 08:26:57;;;;;;;13.95;1.98;;;11.20;99.90;;;;;;5029612;28;20083;-36
2022/04/28 08:29:23;;;;;;;13.25;2.10;;;11.20;99.90;;;;;;5044757;28;20552;-36
2022/04/28 08:31:49;;;;;;;5.32;1.83;;;11.20;99.90;;;;;;5043784;28;20067;-36
2022/04/28 08:34:17;;;;;;;11.60;2.20;;;11.30;99.90;;;;;;5045495;28;20049;-36
2022/04/28 08:36:44;;;;;;;7.45;1.80;;;11.30;99.90;;;;;;5031466;28;20052;-36
2022/04/28 08:39:11;;;;;;;12.30;2.08;;;11.40;99.90;;;;;;5044197;28;20041;-36
2022/04/28 08:41:41;;;;;;;12.15;2.40;;;11.30;99.90;;;;;;5043356;28;20427;-36
2022/04/28 08:44:18;;;;;;;11.65;2.83;;;11.40;99.90;;;;;;5043014;28;20048;-36
2022/04/28 08:46:51;;;;;;;11.18;2.88;;;11.40;99.90;;;;;;5028378;28;20119;-37
2022/04/28 08:49:25;;;;;;;11.27;2.97;;;11.40;99.90;;;;;;5043820;28;20094;-36
2022/04/28 08:51:53;;;;;;;10.63;3.30;;;11.40;99.90;;;;;;5044256;28;20121;-36
2022/04/28 08:54:20;;;;;;;9.68;3.00;;;11.50;99.90;;;;;;5043837;28;20416;-36
2022/04/28 08:56:46;;;;;;;10.98;2.67;;;11.60;99.90;;;;;;5027347;28;20344;-37
2022/04/28 08:59:14;;;;;;;5.50;2.45;;;11.60;99.90;;;;;;5040928;28;20552;-36
2022/04/28 09:01:40;;;;;;;13.32;2.97;;;11.60;99.90;;;;;;5040359;28;20378;-36
2022/04/28 09:04:07;;;;;;;8.90;2.47;;;11.70;99.90;;;;;;5040043;28;20055;-36
2022/04/28 09:06:35;;;;;;;12.50;2.75;;;11.60;99.90;;;;;;5029591;28;20041;-36
2022/04/28 09:09:04;;;;;;;10.27;2.88;;;11.60;99.90;;;;;;5040763;28;20128;-36
2022/04/28 09:11:39;;;;;;;10.75;3.28;;;11.70;99.90;;;;;;5041469;28;20040;-36
2022/04/28 09:14:09;;;;;;;8.25;2.55;;;11.70;99.90;;;;;;5040043;28;20069;-36
2022/04/28 09:16:56;;;;;;;13.88;2.83;;;11.80;99.90;;;;;;5027468;28;20529;-36
2022/04/28 09:19:40;;;;;;;12.43;3.20;;;11.70;99.90;;;;;;5040163;28;20037;-36
2022/04/28 09:22:13;;;;;;;12.10;3.38;;;11.80;99.90;;;;;;5040428;28;21487;-36
2022/04/28 09:24:44;;;;;;;7.90;2.75;;;11.80;99.90;;;;;;5041245;28;20068;-36
2022/04/28 09:27:11;;;;;;;14.30;3.50;;;11.80;99.90;;;;;;5026175;28;20117;-36
2022/04/28 09:29:39;;;;;;;14.85;3.10;;;11.80;99.90;;;;;;5041068;28;20106;-36
2022/04/28 09:32:15;;;;;;;12.35;3.80;;;11.90;99.90;;;;;;5040902;28;20064;-37
2022/04/28 09:34:49;;;;;;;9.82;3.67;;;11.90;99.90;;;;;;5042362;28;20043;-36
2022/04/28 09:37:23;;;;;;;11.32;3.55;;;11.90;99.90;;;;;;5028500;28;20044;-36
2022/04/28 09:42:41;;;;;;;18.58;3.85;;;11.90;99.90;;;;;;5042040;28;20379;-36
2022/04/28 09:45:09;;;;;;;11.15;3.28;;;11.90;99.90;;;;;;5043897;28;20531;-36
2022/04/28 09:47:36;;;;;;;8.48;3.50;;;11.90;99.90;;;;;;5025286;28;20056;-37
2022/04/28 09:50:12;;;;;;;11.23;3.30;;;11.90;99.90;;;;;;5043435;28;20063;-36
2022/04/28 09:52:41;;;;;;;13.68;3.67;;;11.90;99.90;;;;;;5039931;28;20040;-36
2022/04/28 09:55:07;;;;;;;10.95;3.38;;;11.90;99.90;;;;;;5057989;28;20589;-36
2022/04/28 09:57:32;;;;;;;15.75;3.45;;;11.90;99.90;;;;;;5025892;28;20512;-36
2022/04/28 09:59:59;;;;;;;11.18;3.20;;;11.90;99.90;;;;;;5042919;28;20118;-36
2022/04/28 10:02:27;;;;;;;8.57;3.53;;;11.90;99.90;;;;;;5041779;28;20101;-36
2022/04/28 10:04:54;;;;;;;11.50;3.58;;;12.00;99.90;;;;;;5043332;28;20048;-36
2022/04/28 10:07:21;;;;;;;16.70;4.18;;;12.00;99.90;;;;;;5043393;28;20041;-36
2022/04/28 10:09:50;;;;;;;12.57;3.10;;;12.00;99.90;;;;;;5041596;28;20494;-36
2022/04/28 10:12:28;;;;;;;8.18;2.78;;;12.00;99.90;;;;;;5041696;28;20523;-36
2022/04/28 10:14:55;;;;;;;10.05;3.00;;;12.10;99.90;;;;;;5043500;28;20130;-36
2022/04/28 10:17:29;;;;;;;14.73;3.42;;;12.00;99.90;;;;;;5027340;28;20507;-36
2022/04/28 10:19:59;;;;;;;12.32;3.20;;;12.10;99.90;;;;;;5042442;28;20041;-36
2022/04/28 10:22:33;;;;;;;12.88;3.03;;;12.10;99.90;;;;;;5040480;28;20045;-36
2022/04/28 10:33:21;;;;;;;13.07;2.80;;;12.20;99.90;;;;;;5040682;28;20545;-36
2022/04/28 10:35:49;;;;;;;9.13;2.90;;;12.10;99.90;;;;;;5041412;28;20128;-37
2022/04/28 10:38:26;;;;;;;9.38;2.45;;;12.20;99.90;;;;;;5026194;28;20120;-36
2022/04/28 10:41:05;;;;;;;9.93;2.60;;;12.30;99.90;;;;;;5040945;28;20626;-36
2022/04/28 10:43:34;;;;;;;12.82;2.58;;;12.40;99.90;;;;;;5037657;28;20450;-36
2022/04/28 10:46:08;;;;;;;8.95;2.63;;;12.40;99.90;;;;;;5040105;28;20075;-36
2022/04/28 10:48:44;;;;;;;9.80;2.40;;;12.50;99.90;;;;;;5031440;28;20059;-36
2022/04/28 10:51:16;;;;;;;8.95;2.60;;;12.40;99.90;;;;;;5041165;28;20041;-36
2022/04/28 10:54:02;;;;;;;12.82;2.90;;;12.40;99.90;;;;;;5037674;28;20057;-36
2022/04/28 10:56:54;;;;;;;11.45;2.33;;;12.50;99.90;;;;;;5022264;28;20553;-36
2022/04/28 10:59:25;;;;;;;9.98;2.80;;;12.50;99.90;;;;;;5037874;28;20049;-36
2022/04/28 11:01:51;;;;;;;;;;;12.50;99.90;;;;;;5039179;28;20926;-36
2022/04/28 11:04:22;;;;;;;10.82;2.42;;;12.50;99.90;;;;;;5039421;28;19932;-36
2022/04/28 11:06:56;;;;;;;10.13;2.58;;;12.50;99.90;;;;;;5023524;28;20130;-36
2022/04/28 11:09:36;;;;;;;7.07;2.30;;;12.50;99.90;;;;;;5039384;28;20041;-36
2022/04/28 11:12:12;;;;;;;14.27;2.55;;;12.50;99.90;;;;;;5039955;28;20036;-36
2022/04/28 11:14:59;;;;;;;11.35;2.50;;;12.50;99.90;;;;;;5039419;28;20119;-36
2022/04/28 11:17:26;;;;;;;11.57;2.63;;;12.60;99.90;;;;;;5024336;28;20055;-36
2022/04/28 11:19:53;;;;;;;10.80;2.58;;;12.50;99.90;;;;;;5040075;28;20128;-36
2022/04/28 11:22:18;;;;;;;13.13;2.60;;;12.60;99.90;;;;;;5036245;28;20384;-36
2022/04/28 11:24:45;;;;;;;10.45;2.50;;;12.50;99.90;;;;;;5040180;28;20055;-36
2022/04/28 11:27:23;;;;;;;11.20;2.58;;;12.60;99.90;;;;;;5022234;28;20041;-37
2022/04/28 11:29:58;;;;;;;8.40;2.28;;;12.60;99.90;;;;;;5038727;28;20103;-36
2022/04/28 11:32:25;;;;;;;12.80;2.35;;;12.60;99.90;;;;;;5035907;28;20040;-36
2022/04/28 11:34:52;;;;;;;9.07;2.78;;;12.60;99.90;;;;;;5038605;28;20164;-37
2022/04/28 11:37:22;;;;;;;10.43;2.60;;;12.60;99.90;;;;;;5023259;28;20049;-37
2022/04/28 11:39:50;;;;;;;9.75;2.13;;;12.60;99.90;;;;;;5037095;28;20057;-36
2022/04/28 11:42:17;;;;;;;6.15;1.95;;;12.60;99.90;;;;;;5037900;28;20048;-36
2022/04/28 11:44:52;;;;;;;14.07;2.67;;;12.50;99.90;;;;;;5038658;28;20119;-36
2022/04/28 11:47:22;;;;;;;10.20;2.58;;;12.60;99.90;;;;;;5022845;28;20053;-36
2022/04/28 11:49:50;;;;;;;7.43;2.28;;;12.60;99.90;;;;;;5041718;28;20110;-36
2022/04/28 11:52:26;;;;;;;12.90;2.78;;;12.60;99.90;;;;;;5038107;28;20208;-36
2022/04/28 11:54:57;;;;;;;9.30;2.20;;;12.60;99.90;;;;;;5040058;28;20478;-36
2022/04/28 11:57:23;;;;;;;11.40;2.80;;;12.60;99.90;;;;;;5027032;28;20056;-36
2022/04/28 11:59:49;;;;;;;9.50;2.63;;;12.50;99.90;;;;;;5045104;28;20068;-37
2022/04/28 12:02:32;;;;;;;11.95;2.60;;;12.60;99.90;;;;;;5044401;28;20059;-37
2022/04/28 12:05:00;;;;;;;9.55;2.70;;;12.60;99.90;;;;;;5044612;28;20037;-37
2022/04/28 12:07:36;;;;;;;9.73;2.90;;;12.60;99.90;;;;;;5027134;28;20045;-37
2022/04/28 12:15:33;;;;;;;13.38;2.67;;;12.60;99.90;;;;;;5045118;28;20049;-36
2022/04/28 12:21:00;;;;;;;9.10;2.30;;;12.60;99.90;;;;;;5043815;28;20478;-36
2022/04/28 12:23:39;;;;;;;6.43;2.38;;;12.60;99.90;;;;;;5043540;28;20064;-36
2022/04/28 12:26:07;;;;;;;10.50;2.75;;;12.60;99.90;;;;;;5042985;28;20052;-36
2022/04/28 12:28:41;;;;;;;10.88;2.50;;;12.60;99.90;;;;;;5031233;28;20393;-36
2022/04/28 12:31:09;;;;;;;14.45;2.53;;;12.60;99.90;;;;;;5043834;28;20045;-36
2022/04/28 12:33:38;;;;;;;6.93;2.30;;;12.60;99.90;;;;;;5041473;28;20110;-36
2022/04/28 12:36:05;;;;;;;13.07;2.72;;;12.60;99.90;;;;;;5044529;28;20041;-36
2022/04/28 12:38:35;;;;;;;12.43;2.92;;;12.60;99.90;;;;;;5029057;28;20041;-36
2022/04/28 12:41:15;;;;;;;10.35;2.80;;;12.60;99.90;;;;;;5041575;28;20059;-36
2022/04/28 12:43:43;;;;;;;9.20;2.75;;;12.50;99.90;;;;;;5040442;28;20048;-36
2022/04/28 12:46:10;;;;;;;9.48;2.70;;;12.60;99.90;;;;;;5037610;28;20060;-37
2022/04/28 12:48:37;;;;;;;9.25;2.53;;;12.70;99.90;;;;;;5034072;28;20049;-36
2022/04/28 12:51:23;;;;;;;9.27;2.80;;;12.60;99.90;;;;;;5044008;28;20152;-36
2022/04/28 12:53:54;;;;;;;9.85;2.53;;;12.70;99.90;;;;;;5050279;28;20057;-36
2022/04/28 12:56:31;;;;;;;12.98;2.50;;;12.70;99.90;;;;;;5031169;28;20047;-36
2022/04/28 12:59:02;;;;;;;11.60;2.50;;;12.70;99.90;;;;;;5040190;28;20087;-36
2022/04/28 13:01:30;;;;;;;8.82;2.85;;;12.80;99.90;;;;;;5043923;28;20255;-36
2022/04/28 13:03:58;;;;;;;14.35;2.95;;;12.70;99.90;;;;;;5042029;28;20071;-36
2022/04/28 13:06:25;;;;;;;10.00;2.60;;;12.80;99.90;;;;;;5030689;28;20082;-37
2022/04/28 13:08:51;;;;;;;10.02;2.92;;;12.80;99.90;;;;;;5036902;28;20780;-36
2022/04/28 13:11:28;;;;;;;7.25;2.08;;;12.80;99.90;;;;;;5043286;28;20045;-37
2022/04/28 13:13:55;;;;;;;7.03;2.45;;;13.00;99.90;;;;;;5040976;28;20041;-36
2022/04/28 13:16:21;;;;;;;9.55;2.30;;;12.80;99.90;;;;;;5031959;28;20119;-37
2022/04/28 13:18:47;;;;;;;5.55;1.92;;;12.90;99.90;;;;;;5037119;28;20052;-36
2022/04/28 13:21:13;;;;;;;6.00;2.20;;;13.00;99.90;;;;;;5042963;28;20037;-36
2022/04/28 13:23:40;;;;;;;10.13;2.35;;;13.10;99.90;;;;;;5039282;28;20037;-37
2022/04/28 13:26:07;;;;;;;11.73;2.28;;;13.10;99.90;;;;;;5043003;28;20434;-36